createdAt,value
2018-12-09T00:01:28.528Z,77.59
2018-12-09T00:04:02.607Z,76.27
2018-12-09T00:06:36.629Z,77.16
2018-12-09T00:09:10.661Z,77.20
2018-12-09T00:11:44.567Z,76.68
2018-12-09T00:14:19.398Z,77.59
2018-12-09T00:16:53.152Z,77.08
2018-12-09T00:19:27.007Z,76.52
2018-12-09T00:22:00.812Z,75.35
2018-12-09T00:24:34.789Z,75.08
2018-12-09T00:27:08.832Z,74.06
2018-12-09T00:29:42.943Z,73.67
2018-12-09T00:32:16.854Z,75.05
2018-12-09T00:34:50.699Z,74.40
2018-12-09T00:37:24.839Z,74.70
2018-12-09T00:39:58.674Z,74.62
2018-12-09T00:42:32.684Z,74.82
2018-12-09T00:45:06.759Z,74.47
2018-12-09T00:47:40.805Z,73.39
2018-12-09T00:50:14.714Z,73.50
2018-12-09T00:52:48.347Z,72.66
2018-12-09T00:55:22.323Z,72.29
2018-12-09T00:57:56.231Z,71.93
2018-12-09T01:00:30.105Z,73.27
2018-12-09T01:03:04.455Z,73.54
2018-12-09T01:05:38.309Z,74.64
2018-12-09T01:08:12.577Z,73.45
2018-12-09T01:10:46.281Z,73.09
2018-12-09T01:13:20.191Z,74.41
2018-12-09T01:15:55.451Z,74.08
2018-12-09T01:18:29.501Z,74.59
2018-12-09T01:21:03.725Z,75.05
2018-12-09T01:23:37.866Z,75.40
2018-12-09T01:26:11.785Z,74.89
2018-12-09T01:28:46.146Z,74.20
2018-12-09T01:31:20.358Z,74.17
2018-12-09T01:33:54.267Z,74.98
2018-12-09T01:36:28.219Z,74.23
2018-12-09T01:39:02.135Z,74.43
2018-12-09T01:41:36.125Z,74.40
2018-12-09T01:44:10.354Z,73.46
2018-12-09T01:46:44.467Z,73.90
2018-12-09T01:49:18.514Z,73.31
2018-12-09T01:51:52.502Z,73.06
2018-12-09T01:54:26.800Z,73.07
2018-12-09T01:57:01.019Z,73.35
2018-12-09T01:59:35.254Z,72.93
2018-12-09T02:02:09.581Z,72.55
2018-12-09T02:04:44.597Z,71.99
2018-12-09T02:07:18.707Z,73.55
2018-12-09T02:09:54.373Z,74.84
2018-12-09T02:12:28.284Z,75.31
2018-12-09T02:15:02.252Z,75.55
2018-12-09T02:17:36.402Z,74.53
2018-12-09T02:20:10.427Z,73.56
2018-12-09T02:22:44.702Z,73.78
2018-12-09T02:25:19.225Z,73.34
2018-12-09T02:27:53.145Z,71.89
2018-12-09T02:30:28.170Z,72.92
2018-12-09T02:33:02.301Z,71.95
2018-12-09T02:35:40.614Z,71.85
2018-12-09T02:38:14.709Z,71.57
2018-12-09T02:40:48.704Z,70.96
2018-12-09T02:43:22.964Z,71.33
2018-12-09T02:45:57.031Z,71.91
2018-12-09T02:48:31.143Z,72.15
2018-12-09T02:51:05.011Z,71.25
2018-12-09T02:53:39.274Z,70.72
2018-12-09T02:56:14.301Z,70.20
2018-12-09T02:58:48.411Z,70.02
2018-12-09T03:01:22.419Z,70.45
2018-12-09T03:03:56.431Z,69.78
2018-12-09T03:06:30.479Z,68.84
2018-12-09T03:09:06.545Z,69.68
2018-12-09T03:11:40.391Z,69.32
2018-12-09T03:14:14.516Z,68.97
2018-12-09T03:16:48.746Z,69.77
2018-12-09T03:19:22.603Z,70.10
2018-12-09T03:21:56.856Z,69.52
2018-12-09T03:24:30.760Z,68.97
2018-12-09T03:27:04.876Z,69.11
2018-12-09T03:29:38.744Z,68.61
2018-12-09T03:32:13.205Z,70.09
2018-12-09T03:34:47.110Z,71.32
2018-12-09T03:37:21.117Z,71.55
2018-12-09T03:39:55.129Z,71.34
2018-12-09T03:42:29.754Z,70.62
2018-12-09T03:45:03.983Z,70.70
2018-12-09T03:47:38.178Z,69.86
2018-12-09T03:50:12.197Z,70.21
2018-12-09T03:52:46.301Z,70.32
2018-12-09T03:55:19.997Z,69.81
2018-12-09T03:57:54.118Z,68.99
2018-12-09T04:00:27.920Z,69.47
2018-12-09T04:03:02.135Z,70.21
2018-12-09T04:05:36.148Z,69.83
2018-12-09T04:08:10.110Z,69.21
2018-12-09T04:10:43.857Z,68.53
2018-12-09T04:13:17.790Z,69.17
2018-12-09T04:15:51.723Z,68.64
2018-12-09T04:18:25.579Z,68.32
2018-12-09T04:20:59.547Z,68.65
2018-12-09T04:23:33.599Z,69.16
2018-12-09T04:26:07.816Z,69.81
2018-12-09T04:28:41.476Z,69.84
2018-12-09T04:31:15.283Z,68.90
2018-12-09T04:33:49.437Z,68.83
2018-12-09T04:36:23.340Z,68.61
2018-12-09T04:38:57.351Z,68.09
2018-12-09T04:41:31.259Z,68.02
2018-12-09T04:44:05.034Z,68.44
2018-12-09T04:46:39.037Z,67.87
2018-12-09T04:49:13.184Z,69.28
2018-12-09T04:51:53.302Z,68.31
2018-12-09T04:54:27.143Z,68.57
2018-12-09T04:57:01.053Z,68.67
2018-12-09T04:59:37.857Z,67.87
2018-12-09T05:02:11.630Z,67.48
2018-12-09T05:04:45.639Z,68.71
2018-12-09T05:07:19.649Z,68.28
2018-12-09T05:09:53.351Z,68.73
2018-12-09T05:12:27.428Z,68.00
2018-12-09T05:15:01.269Z,68.88
2018-12-09T05:17:35.035Z,69.17
2018-12-09T05:20:09.186Z,69.80
2018-12-09T05:22:43.093Z,70.14
2018-12-09T05:25:17.205Z,69.55
2018-12-09T05:27:51.010Z,70.85
2018-12-09T05:30:25.124Z,70.14
2018-12-09T05:32:58.825Z,70.72
2018-12-09T05:35:32.733Z,69.51
2018-12-09T05:38:06.390Z,68.92
2018-12-09T05:40:40.649Z,69.69
2018-12-09T05:43:14.965Z,70.34
2018-12-09T05:45:49.051Z,69.28
2018-12-09T05:48:23.088Z,70.15
2018-12-09T05:50:56.893Z,70.35
2018-12-09T05:53:30.801Z,70.05
2018-12-09T05:56:04.912Z,69.40
2018-12-09T05:58:38.820Z,68.79
2018-12-09T06:01:13.038Z,69.01
2018-12-09T06:03:47.009Z,71.16
2018-12-09T06:06:21.099Z,70.61
2018-12-09T06:08:55.166Z,70.35
2018-12-09T06:11:29.176Z,70.12
2018-12-09T06:14:03.146Z,68.82
2018-12-09T06:16:37.200Z,69.61
2018-12-09T06:19:11.458Z,70.54
2018-12-09T06:21:45.252Z,70.12
2018-12-09T06:24:19.226Z,69.83
2018-12-09T06:26:53.438Z,69.58
2018-12-09T06:29:27.108Z,70.42
2018-12-09T06:32:01.026Z,71.35
2018-12-09T06:34:35.059Z,72.18
2018-12-09T06:37:08.765Z,72.91
2018-12-09T06:39:42.748Z,72.37
2018-12-09T06:42:16.863Z,72.65
2018-12-09T06:44:50.857Z,72.56
2018-12-09T06:47:25.004Z,72.21
2018-12-09T06:49:58.808Z,70.63
2018-12-09T06:52:32.461Z,69.74
2018-12-09T06:55:06.727Z,70.94
2018-12-09T06:57:40.841Z,70.58
2018-12-09T07:00:14.745Z,70.73
2018-12-09T07:02:48.553Z,71.07
2018-12-09T07:05:22.562Z,70.68
2018-12-09T07:07:56.467Z,71.69
2018-12-09T07:10:30.530Z,71.54
2018-12-09T07:13:05.000Z,71.04
2018-12-09T07:15:38.906Z,70.87
2018-12-09T07:18:12.731Z,71.11
2018-12-09T07:20:46.524Z,71.29
2018-12-09T07:23:20.425Z,70.81
2018-12-09T07:25:54.233Z,70.53
2018-12-09T07:28:28.243Z,70.64
2018-12-09T07:31:02.831Z,71.05
2018-12-09T07:33:36.819Z,70.45
2018-12-09T07:36:10.785Z,71.75
2018-12-09T07:38:44.686Z,72.05
2018-12-09T07:41:18.663Z,70.94
2018-12-09T07:43:52.809Z,71.44
2018-12-09T07:46:26.828Z,72.40
2018-12-09T07:49:01.109Z,71.60
2018-12-09T07:51:35.125Z,71.74
2018-12-09T07:54:09.163Z,71.57
2018-12-09T07:56:43.473Z,71.74
2018-12-09T07:59:17.380Z,71.43
2018-12-09T08:01:51.437Z,71.23
2018-12-09T08:04:25.400Z,71.06
2018-12-09T08:07:00.263Z,71.07
2018-12-09T08:09:34.157Z,71.31
2018-12-09T08:12:08.146Z,71.67
2018-12-09T08:14:42.156Z,72.43
2018-12-09T08:17:16.061Z,71.55
2018-12-09T08:19:49.924Z,72.56
2018-12-09T08:22:24.183Z,73.41
2018-12-09T08:24:58.090Z,71.42
2018-12-09T08:27:32.099Z,71.24
2018-12-09T08:30:06.007Z,70.83
2018-12-09T08:32:39.917Z,71.20
2018-12-09T08:35:15.313Z,71.33
2018-12-09T08:37:49.348Z,70.47
2018-12-09T08:40:23.488Z,70.38
2018-12-09T08:42:57.387Z,70.45
2018-12-09T08:45:31.496Z,71.45
2018-12-09T08:48:05.508Z,70.65
2018-12-09T08:50:39.211Z,70.26
2018-12-09T08:53:13.390Z,71.29
2018-12-09T08:55:47.379Z,71.23
2018-12-09T08:58:21.320Z,72.17
2018-12-09T09:00:55.353Z,71.41
2018-12-09T09:03:29.369Z,71.72
2018-12-09T09:06:03.315Z,71.07
2018-12-09T09:08:37.280Z,70.54
2018-12-09T09:11:11.186Z,70.50
2018-12-09T09:13:45.196Z,70.08
2018-12-09T09:16:19.104Z,70.15
2018-12-09T09:18:52.915Z,69.80
2018-12-09T09:21:27.020Z,70.77
2018-12-09T09:24:00.825Z,70.96
2018-12-09T09:26:34.732Z,72.81
2018-12-09T09:29:08.508Z,73.18
2018-12-09T09:31:42.394Z,73.39
2018-12-09T09:34:16.473Z,74.40
2018-12-09T09:36:50.464Z,73.35
2018-12-09T09:39:24.374Z,72.26
2018-12-09T09:41:58.380Z,72.49
2018-12-09T09:44:32.192Z,72.17
2018-12-09T09:47:06.259Z,72.20
2018-12-09T09:49:40.307Z,72.30
2018-12-09T09:52:14.117Z,71.65
2018-12-09T09:54:48.122Z,70.97
2018-12-09T09:57:22.029Z,70.05
2018-12-09T09:59:55.887Z,69.49
2018-12-09T10:02:29.844Z,68.23
2018-12-09T10:05:03.753Z,69.06
2018-12-09T10:07:37.658Z,68.70
2018-12-09T10:10:11.777Z,70.69
2018-12-09T10:12:45.761Z,69.59
2018-12-09T10:15:19.811Z,69.99
2018-12-09T10:17:53.903Z,69.91
2018-12-09T10:20:27.811Z,69.17
2018-12-09T10:23:01.819Z,68.81
2018-12-09T10:25:35.831Z,69.14
2018-12-09T10:28:09.633Z,68.66
2018-12-09T10:30:43.649Z,69.09
2018-12-09T10:33:17.605Z,70.28
2018-12-09T10:35:51.560Z,70.07
2018-12-09T10:38:25.469Z,69.88
2018-12-09T10:40:59.579Z,70.28
2018-12-09T10:43:33.592Z,68.98
2018-12-09T10:46:07.599Z,69.69
2018-12-09T10:48:41.276Z,69.32
2018-12-09T10:51:15.314Z,69.74
2018-12-09T10:53:49.116Z,70.42
2018-12-09T10:56:23.127Z,70.06
2018-12-09T10:58:57.035Z,69.51
2018-12-09T11:01:46.621Z,69.95
2018-12-09T11:04:21.028Z,69.64
2018-12-09T11:06:54.908Z,69.44
2018-12-09T11:09:28.720Z,70.65
2018-12-09T11:12:02.855Z,71.22
2018-12-09T11:14:36.659Z,71.51
2018-12-09T11:17:10.409Z,71.72
2018-12-09T11:19:44.166Z,71.17
2018-12-09T11:22:17.867Z,72.42
2018-12-09T11:24:51.675Z,72.68
2018-12-09T11:27:25.587Z,70.10
2018-12-09T11:29:59.490Z,70.94
2018-12-09T11:32:33.288Z,70.15
2018-12-09T11:35:07.918Z,70.00
2018-12-09T11:37:41.823Z,70.18
2018-12-09T11:40:15.585Z,70.18
2018-12-09T11:42:49.742Z,69.33
2018-12-09T11:45:23.547Z,69.27
2018-12-09T11:47:57.351Z,69.51
2018-12-09T11:50:31.362Z,69.26
2018-12-09T11:53:05.269Z,70.11
2018-12-09T11:55:39.128Z,69.95
2018-12-09T11:58:13.002Z,68.74
2018-12-09T12:00:46.888Z,68.64
2018-12-09T12:03:20.798Z,68.02
2018-12-09T12:05:55.623Z,67.11
2018-12-09T12:08:29.432Z,67.07
2018-12-09T12:11:03.124Z,67.65
2018-12-09T12:13:37.244Z,67.14
2018-12-09T12:16:11.049Z,67.28
2018-12-09T12:18:45.063Z,67.17
2018-12-09T12:21:19.067Z,67.44
2018-12-09T12:23:53.078Z,67.52
2018-12-09T12:26:26.833Z,67.59
2018-12-09T12:29:00.950Z,67.60
2018-12-09T12:31:34.903Z,67.95
2018-12-09T12:34:08.709Z,67.63
2018-12-09T12:36:42.412Z,67.86
2018-12-09T12:39:16.219Z,67.17
2018-12-09T12:41:50.122Z,68.13
2018-12-09T12:44:23.892Z,67.92
2018-12-09T12:46:57.841Z,66.95
2018-12-09T12:49:32.022Z,66.81
2018-12-09T12:52:06.065Z,66.98
2018-12-09T12:54:39.966Z,66.74
2018-12-09T12:57:13.992Z,66.85
2018-12-09T12:59:48.087Z,67.53
2018-12-09T13:02:22.015Z,67.38
2018-12-09T13:04:56.108Z,66.98
2018-12-09T13:07:30.204Z,66.90
2018-12-09T13:10:05.867Z,66.91
2018-12-09T13:12:39.672Z,67.05
2018-12-09T13:15:13.682Z,66.81
2018-12-09T13:17:47.794Z,67.01
2018-12-09T13:20:21.701Z,66.77
2018-12-09T13:22:55.608Z,66.66
2018-12-09T13:25:29.461Z,66.66
2018-12-09T13:28:03.524Z,66.62
2018-12-09T13:30:37.739Z,66.62
2018-12-09T13:33:11.609Z,66.53
2018-12-09T13:35:46.395Z,66.57
2018-12-09T13:38:21.513Z,66.48
2018-12-09T13:40:55.416Z,66.16
2018-12-09T13:43:29.326Z,66.82
2018-12-09T13:46:03.295Z,66.73
2018-12-09T13:48:37.241Z,66.72
2018-12-09T13:51:11.149Z,67.09
2018-12-09T13:53:44.866Z,67.61
2018-12-09T13:56:18.758Z,67.78
2018-12-09T13:58:52.667Z,67.58
2018-12-09T14:01:26.536Z,68.11
2018-12-09T14:04:00.583Z,68.00
2018-12-09T14:06:34.395Z,67.98
2018-12-09T14:09:08.501Z,68.24
2018-12-09T14:11:42.486Z,68.05
2018-12-09T14:14:16.520Z,67.95
2018-12-09T14:16:50.425Z,67.90
2018-12-09T14:19:24.407Z,67.70
2018-12-09T14:21:58.421Z,67.62
2018-12-09T14:24:32.458Z,67.09
2018-12-09T14:27:06.467Z,67.06
2018-12-09T14:29:40.374Z,67.26
2018-12-09T14:32:14.689Z,68.00
2018-12-09T14:34:48.597Z,67.76
2018-12-09T14:37:22.612Z,68.66
2018-12-09T14:39:56.517Z,68.81
2018-12-09T14:42:30.422Z,68.87
2018-12-09T14:45:05.582Z,68.97
2018-12-09T14:47:39.442Z,68.81
2018-12-09T14:50:13.372Z,68.24
2018-12-09T14:52:47.383Z,68.40
2018-12-09T14:55:21.147Z,68.25
2018-12-09T14:57:55.298Z,68.03
2018-12-09T15:00:29.206Z,68.50
2018-12-09T15:03:03.116Z,68.81
2018-12-09T15:05:37.228Z,69.01
2018-12-09T15:08:11.235Z,68.89
2018-12-09T15:10:45.039Z,68.29
2018-12-09T15:13:18.846Z,68.71
2018-12-09T15:15:52.957Z,69.21
2018-12-09T15:18:26.967Z,68.84
2018-12-09T15:21:00.749Z,70.74
2018-12-09T15:23:34.862Z,70.81
2018-12-09T15:26:08.895Z,70.81
2018-12-09T15:28:42.643Z,70.16
2018-12-09T15:31:16.509Z,69.03
2018-12-09T15:33:50.513Z,68.56
2018-12-09T15:36:24.321Z,68.36
2018-12-09T15:38:58.327Z,69.32
2018-12-09T15:41:32.134Z,70.20
2018-12-09T15:44:05.937Z,69.65
2018-12-09T15:46:39.641Z,68.96
2018-12-09T15:49:13.753Z,69.11
2018-12-09T15:51:47.660Z,69.21
2018-12-09T15:54:21.700Z,68.39
2018-12-09T15:56:55.489Z,68.21
2018-12-09T15:59:32.241Z,67.79
2018-12-09T16:02:05.544Z,67.51
2018-12-09T16:04:39.318Z,67.72
2018-12-09T16:07:13.151Z,67.70
2018-12-09T16:09:47.221Z,68.19
2018-12-09T16:12:21.183Z,69.22
2018-12-09T16:14:55.386Z,69.25
2018-12-09T16:17:29.399Z,69.31
2018-12-09T16:20:04.747Z,69.30
2018-12-09T16:22:38.587Z,68.79
2018-12-09T16:25:12.605Z,69.25
2018-12-09T16:27:46.813Z,69.57
2018-12-09T16:30:20.837Z,68.97
2018-12-09T16:32:54.782Z,68.53
2018-12-09T16:35:28.924Z,69.15
2018-12-09T16:38:03.007Z,69.60
2018-12-09T16:40:37.032Z,68.94
2018-12-09T16:43:11.860Z,68.63
2018-12-09T16:45:46.128Z,69.02
2018-12-09T16:48:20.684Z,69.43
2018-12-09T16:50:54.737Z,69.15
2018-12-09T16:53:28.603Z,68.85
2018-12-09T16:56:02.714Z,69.41
2018-12-09T16:58:36.621Z,69.49
2018-12-09T17:01:10.528Z,69.59
2018-12-09T17:03:44.310Z,70.21
2018-12-09T17:06:18.856Z,69.78
2018-12-09T17:08:52.864Z,69.05
2018-12-09T17:11:26.670Z,69.00
2018-12-09T17:14:00.682Z,69.22
2018-12-09T17:16:34.588Z,69.23
2018-12-09T17:19:08.425Z,68.85
2018-12-09T17:21:42.405Z,68.93
2018-12-09T17:24:16.206Z,68.84
2018-12-09T17:26:50.115Z,68.37
2018-12-09T17:29:24.020Z,68.29
2018-12-09T17:31:58.033Z,68.43
2018-12-09T17:34:31.990Z,68.73
2018-12-09T17:37:06.168Z,69.47
2018-12-09T17:39:40.526Z,70.30
2018-12-09T17:42:14.788Z,70.04
2018-12-09T17:44:48.730Z,69.74
2018-12-09T17:47:22.806Z,69.13
2018-12-09T17:49:56.942Z,69.50
2018-12-09T17:52:30.932Z,69.26
2018-12-09T17:55:05.045Z,68.69
2018-12-09T17:57:39.248Z,68.37
2018-12-09T18:00:13.369Z,69.02
2018-12-09T18:02:47.275Z,68.85
2018-12-09T18:05:21.181Z,68.80
2018-12-09T18:07:55.330Z,68.83
2018-12-09T18:10:29.308Z,68.54
2018-12-09T18:13:03.418Z,68.01
2018-12-09T18:15:37.321Z,68.57
2018-12-09T18:18:11.024Z,68.39
2018-12-09T18:20:44.930Z,69.00
2018-12-09T18:23:18.782Z,68.74
2018-12-09T18:25:52.850Z,69.71
2018-12-09T18:28:27.473Z,69.07
2018-12-09T18:31:01.791Z,68.80
2018-12-09T18:33:36.004Z,68.83
2018-12-09T18:36:09.865Z,68.61
2018-12-09T18:38:44.023Z,68.89
2018-12-09T18:41:18.088Z,69.96
2018-12-09T18:43:52.146Z,69.59
2018-12-09T18:46:25.847Z,69.15
2018-12-09T18:48:59.769Z,69.03
2018-12-09T18:51:33.866Z,69.85
2018-12-09T18:54:08.801Z,70.36
2018-12-09T18:56:42.602Z,70.53
2018-12-09T18:59:16.495Z,70.27
2018-12-09T19:01:50.446Z,69.54
2018-12-09T19:04:24.844Z,69.90
2018-12-09T19:06:58.850Z,69.34
2018-12-09T19:09:32.960Z,69.86
2018-12-09T19:12:07.172Z,69.82
2018-12-09T19:14:43.129Z,69.00
2018-12-09T19:17:16.933Z,68.78
2018-12-09T19:19:50.739Z,68.69
2018-12-09T19:22:24.570Z,67.95
2018-12-09T19:24:58.298Z,67.61
2018-12-09T19:27:32.257Z,67.39
2018-12-09T19:30:06.881Z,67.51
2018-12-09T19:32:40.686Z,67.45
2018-12-09T19:35:14.899Z,67.15
2018-12-09T19:37:48.744Z,67.35
2018-12-09T19:40:22.817Z,67.07
2018-12-09T19:42:56.725Z,66.86
2018-12-09T19:45:30.719Z,67.00
2018-12-09T19:48:05.092Z,66.72
2018-12-09T19:50:38.958Z,66.72
2018-12-09T19:53:13.171Z,66.30
2018-12-09T19:55:47.284Z,66.37
2018-12-09T19:58:20.933Z,66.43
2018-12-09T20:00:54.860Z,66.52
2018-12-09T20:03:28.903Z,67.14
2018-12-09T20:06:02.708Z,68.11
2018-12-09T20:08:36.515Z,68.01
2018-12-09T20:11:10.399Z,67.49
2018-12-09T20:13:44.328Z,67.53
2018-12-09T20:16:18.234Z,67.55
2018-12-09T20:18:52.041Z,67.45
2018-12-09T20:21:26.053Z,67.92
2018-12-09T20:23:59.956Z,67.81
2018-12-09T20:26:33.967Z,67.76
2018-12-09T20:29:07.975Z,67.08
2018-12-09T20:31:41.985Z,67.80
2018-12-09T20:34:16.100Z,67.23
2018-12-09T20:36:50.048Z,67.07
2018-12-09T20:39:24.939Z,67.20
2018-12-09T20:41:58.979Z,66.92
2018-12-09T20:44:33.067Z,66.82
2018-12-09T20:47:06.965Z,66.61
2018-12-09T20:49:40.978Z,66.56
2018-12-09T20:52:14.985Z,67.10
2018-12-09T20:54:48.858Z,66.58
2018-12-09T20:57:22.913Z,66.15
2018-12-09T20:59:57.116Z,66.00
2018-12-09T21:02:31.238Z,66.25
2018-12-09T21:05:05.238Z,66.86
2018-12-09T21:07:40.131Z,66.50
2018-12-09T21:10:14.178Z,67.10
2018-12-09T21:12:47.983Z,66.59
2018-12-09T21:15:21.992Z,66.67
2018-12-09T21:17:56.002Z,67.12
2018-12-09T21:20:29.909Z,67.59
2018-12-09T21:23:03.897Z,67.79
2018-12-09T21:25:37.887Z,67.37
2018-12-09T21:28:12.042Z,66.91
2018-12-09T21:30:45.849Z,66.93
2018-12-09T21:33:19.861Z,66.40
2018-12-09T21:35:54.786Z,67.28
2018-12-09T21:38:28.898Z,67.25
2018-12-09T21:41:02.704Z,66.73
2018-12-09T21:43:36.717Z,66.63
2018-12-09T21:46:10.833Z,66.40
2018-12-09T21:48:44.836Z,66.76
2018-12-09T21:51:18.743Z,67.11
2018-12-09T21:53:52.956Z,67.21
2018-12-09T21:56:26.893Z,66.81
2018-12-09T21:59:00.875Z,66.19
2018-12-09T22:01:34.919Z,66.47
2018-12-09T22:04:08.792Z,65.92
2018-12-09T22:06:42.601Z,65.91
2018-12-09T22:09:16.401Z,65.52
2018-12-09T22:11:50.648Z,65.92
2018-12-09T22:14:24.733Z,66.03
2018-12-09T22:16:58.738Z,65.18
2018-12-09T22:19:32.384Z,65.11
2018-12-09T22:22:06.346Z,64.99
2018-12-09T22:24:40.254Z,65.04
2018-12-09T22:27:14.469Z,65.07
2018-12-09T22:29:48.170Z,64.93
2018-12-09T22:32:22.081Z,64.98
2018-12-09T22:34:55.995Z,65.49
2018-12-09T22:37:29.892Z,66.27
2018-12-09T22:40:05.035Z,66.80
2018-12-09T22:42:39.038Z,67.30
2018-12-09T22:45:13.253Z,67.26
2018-12-09T22:47:47.131Z,67.36
2018-12-09T22:50:21.164Z,67.11
2018-12-09T22:52:54.974Z,67.15
2018-12-09T22:55:28.827Z,66.51
2018-12-09T22:58:02.891Z,65.82
2018-12-09T23:00:38.950Z,65.62
2018-12-09T23:03:12.959Z,65.70
2018-12-09T23:05:46.867Z,65.33
2018-12-09T23:08:20.670Z,65.59
2018-12-09T23:10:54.382Z,66.50
2018-12-09T23:13:28.293Z,67.04
2018-12-09T23:16:02.291Z,66.87
2018-12-09T23:18:36.197Z,66.68
2018-12-09T23:21:10.104Z,66.02
2018-12-09T23:23:43.779Z,65.82
2018-12-09T23:26:18.021Z,65.49
2018-12-09T23:28:52.018Z,65.67
2018-12-09T23:31:26.143Z,65.46
2018-12-09T23:34:00.049Z,65.42
2018-12-09T23:36:33.911Z,65.25
2018-12-09T23:39:08.171Z,65.21
2018-12-09T23:41:41.976Z,65.22
2018-12-09T23:44:15.788Z,64.71
2018-12-09T23:46:49.688Z,65.17
2018-12-09T23:49:23.800Z,65.60
2018-12-09T23:51:57.707Z,66.14
2018-12-09T23:54:31.537Z,65.52
2018-12-09T23:57:05.421Z,66.50
2018-12-09T23:59:39.329Z,66.69
